Time;durP1;ratioP1;P1;durP2;ratioP2;P2;SDS_P1;SDS_P2;PMS_P1;PMS_P2;Temp;Humidity;BMP_temperature;BMP_pressure;BME280_temperature;BME280_humidity;BME280_pressure;Samples;Min_cycle;Max_cycle;Signal;HPM_P1;HPM_P2
2022/09/15 00:00:02;;;;;;;57.83;26.65;;;;;;;12.96;100.00;100652.06;5067724;28;20034;-64
2022/09/15 00:02:27;;;;;;;54.42;26.00;;;;;;;12.98;100.00;100646.31;5067918;28;20062;-64
2022/09/15 00:04:52;;;;;;;52.63;25.10;;;;;;;12.98;100.00;100649.91;5049598;28;20064;-64
2022/09/15 00:07:18;;;;;;;53.45;25.05;;;;;;;12.99;100.00;100646.03;5062028;28;20029;-65
2022/09/15 00:09:43;;;;;;;54.28;26.58;;;;;;;13.03;100.00;100648.28;5058566;28;20498;-64
2022/09/15 00:12:08;;;;;;;55.90;26.80;;;;;;;13.05;100.00;100646.97;5058295;28;20383;-64
2022/09/15 00:14:34;;;;;;;56.40;26.27;;;;;;;13.08;100.00;100642.88;5069610;28;20340;-66
2022/09/15 00:16:59;;;;;;;54.20;26.13;;;;;;;13.10;100.00;100637.94;5069294;28;20029;-65
2022/09/15 00:19:24;;;;;;;53.22;26.10;;;;;;;13.13;100.00;100634.69;5064977;28;20044;-64
2022/09/15 00:21:50;;;;;;;50.20;25.33;;;;;;;13.16;100.00;100640.50;5051033;28;20086;-64
2022/09/15 00:24:15;;;;;;;50.08;26.25;;;;;;;13.17;100.00;100633.91;5064604;28;20062;-64
2022/09/15 00:26:40;;;;;;;52.03;27.87;;;;;;;13.21;100.00;100637.00;5060859;28;20177;-66
2022/09/15 00:29:06;;;;;;;59.60;26.13;;;;;;;13.21;100.00;100634.22;5059599;28;20385;-64
2022/09/15 00:31:32;;;;;;;57.20;27.13;;;;;;;13.24;100.00;100631.00;5071379;28;20037;-65
2022/09/15 00:34:02;;;;;;;54.42;27.15;;;;;;;13.25;100.00;100627.16;5060922;28;20387;-64
2022/09/15 00:36:28;;;;;;;57.97;27.02;;;;;;;13.28;100.00;100623.91;5060365;28;20043;-64
2022/09/15 00:38:54;;;;;;;56.55;27.77;;;;;;;13.28;100.00;100625.81;5069529;28;20028;-65
2022/09/15 00:41:21;;;;;;;57.85;27.50;;;;;;;13.31;100.00;100623.38;5069942;28;20107;-64
2022/09/15 00:43:56;;;;;;;53.92;26.30;;;;;;;13.33;100.00;100623.13;5069159;28;20032;-64
2022/09/15 00:46:29;;;;;;;56.17;28.95;;;;;;;13.34;100.00;100617.38;5053671;28;20034;-65
2022/09/15 00:49:10;;;;;;;58.85;28.58;;;;;;;13.37;100.00;100627.03;5050577;28;20161;-64
2022/09/15 00:51:48;;;;;;;57.65;29.05;;;;;;;13.41;100.00;100629.03;5052642;28;20051;-64
2022/09/15 00:54:18;;;;;;;58.13;28.13;;;;;;;13.42;100.00;100627.94;5067375;28;20039;-64
2022/09/15 00:56:47;;;;;;;60.92;29.45;;;;;;;13.41;100.00;100630.97;5058738;28;20031;-64
2022/09/15 00:59:17;;;;;;;57.58;29.77;;;;;;;13.47;100.00;100646.50;5069844;28;20062;-64
2022/09/15 01:01:45;;;;;;;64.03;29.27;;;;;;;13.43;100.00;100648.94;5059660;28;20048;-64
2022/09/15 01:04:12;;;;;;;60.10;28.63;;;;;;;13.45;100.00;100641.25;5070281;28;20453;-64
2022/09/15 01:06:44;;;;;;;69.47;30.52;;;;;;;13.46;100.00;100651.19;5069561;28;20507;-64
2022/09/15 01:09:15;;;;;;;56.55;29.13;;;;;;;13.46;100.00;100645.66;5101255;22;20579;-62
2022/09/15 01:11:41;;;;;;;62.28;29.25;;;;;;;13.45;100.00;100644.00;5026826;28;20036;-62
2022/09/15 01:14:07;;;;;;;64.57;29.40;;;;;;;13.47;100.00;100646.50;5026497;28;20044;-61
2022/09/15 01:16:59;;;;;;;57.13;29.05;;;;;;;13.47;100.00;100643.72;5029929;28;20025;-65
2022/09/15 01:19:40;;;;;;;61.85;29.55;;;;;;;13.49;100.00;100644.31;5011938;28;20068;-64
2022/09/15 01:22:36;;;;;;;67.53;29.70;;;;;;;13.52;100.00;100643.81;5026126;28;20334;-65
2022/09/15 01:25:35;;;;;;;60.58;30.33;;;;;;;13.54;100.00;100640.81;5027201;28;20071;-63
2022/09/15 01:28:28;;;;;;;63.30;30.33;;;;;;;13.57;100.00;100634.75;5026547;28;20038;-65
2022/09/15 01:31:05;;;;;;;55.92;28.23;;;;;;;13.54;100.00;100632.53;5026971;28;20033;-64
2022/09/15 01:33:47;;;;;;;62.70;29.43;;;;;;;13.55;100.00;100632.25;5029813;28;20143;-63
2022/09/15 01:36:20;;;;;;;58.63;27.65;;;;;;;13.54;100.00;100627.84;5029149;28;20049;-63
2022/09/15 01:38:51;;;;;;;61.63;28.77;;;;;;;13.53;100.00;100628.91;5029138;28;20033;-64
2022/09/15 01:41:24;;;;;;;62.53;28.35;;;;;;;13.54;100.00;100630.59;5020091;28;20041;-64
2022/09/15 01:44:05;;;;;;;66.88;28.38;;;;;;;13.56;100.00;100633.09;5018434;28;20033;-63
2022/09/15 01:46:35;;;;;;;58.25;27.38;;;;;;;13.52;100.00;100630.00;5029142;28;20037;-65
2022/09/15 01:49:02;;;;;;;62.08;28.25;;;;;;;13.50;100.00;100633.03;5026851;28;20041;-64
2022/09/15 01:51:32;;;;;;;55.25;29.20;;;;;;;13.48;100.00;100628.84;5020822;28;20368;-63
2022/09/15 01:54:01;;;;;;;57.85;27.35;;;;;;;13.43;100.00;100635.16;5027906;28;20120;-63
2022/09/15 01:56:27;;;;;;;59.08;28.55;;;;;;;13.41;100.00;100634.56;5029036;28;20399;-64
2022/09/15 01:58:52;;;;;;;59.53;27.95;;;;;;;13.40;100.00;100635.66;5028470;28;20034;-64
2022/09/15 02:01:26;;;;;;;59.33;27.75;;;;;;;13.38;100.00;100629.56;5026411;28;20036;-64
2022/09/15 02:03:59;;;;;;;54.75;26.48;;;;;;;13.35;100.00;100632.81;5028404;28;20045;-64
2022/09/15 02:06:34;;;;;;;60.00;27.13;;;;;;;13.29;100.00;100622.81;5029084;28;20040;-63
2022/09/15 02:09:07;;;;;;;60.38;27.55;;;;;;;13.26;100.00;100628.00;5027854;28;20042;-63
2022/09/15 02:11:35;;;;;;;58.03;28.48;;;;;;;13.26;100.00;100626.06;5028075;28;20049;-64
2022/09/15 02:14:16;;;;;;;55.92;26.35;;;;;;;13.25;100.00;100624.41;5028170;28;20087;-63
2022/09/15 02:16:45;;;;;;;55.60;26.38;;;;;;;13.26;100.00;100636.25;5027916;28;20065;-63
2022/09/15 02:19:20;;;;;;;54.95;26.77;;;;;;;13.28;100.00;100629.41;5027695;28;20107;-64
2022/09/15 02:21:56;;;;;;;56.13;25.98;;;;;;;13.25;100.00;100627.16;5027793;28;20116;-64
2022/09/15 02:24:46;;;;;;;50.13;24.45;;;;;;;13.23;100.00;100630.19;5027719;28;20040;-63
2022/09/15 02:27:17;;;;;;;54.03;25.20;;;;;;;13.16;100.00;100631.41;5028343;28;20111;-64
2022/09/15 02:29:46;;;;;;;44.35;23.95;;;;;;;13.10;100.00;100637.94;5027065;28;20107;-64
2022/09/15 02:32:15;;;;;;;50.97;24.40;;;;;;;13.04;100.00;100638.94;5027916;28;20361;-63
2022/09/15 02:34:45;;;;;;;49.05;25.65;;;;;;;13.01;100.00;100637.50;5026924;28;20124;-63
2022/09/15 02:37:11;;;;;;;48.78;24.90;;;;;;;12.92;100.00;100630.75;5027352;28;20073;-63
2022/09/15 02:39:53;;;;;;;46.63;25.02;;;;;;;12.87;100.00;100627.91;5027702;28;20025;-64
2022/09/15 02:42:23;;;;;;;46.85;26.17;;;;;;;12.85;100.00;100628.16;5017127;28;20069;-66
2022/09/15 02:44:49;;;;;;;50.22;26.27;;;;;;;12.79;100.00;100634.69;5008525;28;20030;-65
2022/09/15 02:47:14;;;;;;;52.70;25.65;;;;;;;12.78;100.00;100635.78;5012133;28;20049;-64
2022/09/15 02:49:40;;;;;;;51.05;26.00;;;;;;;12.77;100.00;100641.53;5026776;28;20021;-63
2022/09/15 02:52:05;;;;;;;51.42;26.17;;;;;;;12.76;100.00;100637.94;5024253;28;20022;-63
2022/09/15 02:54:30;;;;;;;59.53;27.65;;;;;;;12.76;100.00;100637.09;5028372;28;20200;-63
2022/09/15 02:56:56;;;;;;;56.10;26.83;;;;;;;12.77;100.00;100642.34;5027395;28;20029;-64
2022/09/15 02:59:21;;;;;;;59.60;27.05;;;;;;;12.78;100.00;100634.97;5025906;28;20124;-64
2022/09/15 03:01:46;;;;;;;59.55;28.20;;;;;;;12.81;100.00;100629.75;5027945;28;20049;-64
2022/09/15 03:04:12;;;;;;;61.28;30.42;;;;;;;12.85;100.00;100628.16;5027652;28;20025;-63
2022/09/15 03:06:37;;;;;;;56.58;27.63;;;;;;;12.86;100.00;100631.75;5027506;28;20053;-63
2022/09/15 03:09:06;;;;;;;59.85;28.63;;;;;;;12.86;100.00;100629.84;5026799;28;20037;-64
2022/09/15 03:11:32;;;;;;;62.33;28.58;;;;;;;12.91;100.00;100629.91;5025541;28;20095;-63
2022/09/15 03:14:02;;;;;;;61.75;29.30;;;;;;;12.92;100.00;100631.59;5024016;28;20115;-64
2022/09/15 03:16:30;;;;;;;59.53;29.00;;;;;;;12.96;100.00;100638.25;5008228;28;20034;-64
2022/09/15 03:19:01;;;;;;;62.90;29.52;;;;;;;13.01;100.00;100648.53;5019385;28;20038;-63
2022/09/15 03:21:28;;;;;;;62.47;28.98;;;;;;;13.02;100.00;100660.41;5026757;28;20033;-64
2022/09/15 03:23:55;;;;;;;73.35;30.30;;;;;;;13.04;100.00;100655.50;5024650;28;20034;-64
2022/09/15 03:26:20;;;;;;;55.42;27.80;;;;;;;13.05;100.00;100655.22;5025292;28;20060;-63
2022/09/15 03:28:45;;;;;;;59.80;28.73;;;;;;;13.08;100.00;100659.41;5022831;28;20021;-64
2022/09/15 03:31:11;;;;;;;57.92;27.92;;;;;;;13.10;100.00;100662.75;5015157;28;20048;-63
2022/09/15 03:33:37;;;;;;;61.30;29.73;;;;;;;13.12;100.00;100663.31;5022191;28;20022;-64
2022/09/15 03:36:03;;;;;;;54.45;29.08;;;;;;;13.14;100.00;100669.44;5015713;28;20033;-63
2022/09/15 03:38:28;;;;;;;62.78;29.83;;;;;;;13.16;100.00;100675.53;5014877;28;20034;-63
2022/09/15 03:41:08;;;;;;;55.25;28.63;;;;;;;13.16;100.00;100672.75;5019678;28;20908;-63
2022/09/15 03:43:35;;;;;;;50.95;26.83;;;;;;;13.19;100.00;100675.84;5026133;28;20495;-63
2022/09/15 03:46:00;;;;;;;50.70;28.40;;;;;;;13.21;100.00;100681.13;5019216;28;20432;-64
2022/09/15 03:48:29;;;;;;;57.95;28.80;;;;;;;13.23;100.00;100681.75;5010445;28;20033;-64
2022/09/15 03:50:54;;;;;;;58.25;27.77;;;;;;;13.22;100.00;100675.38;5011380;28;20448;-64
2022/09/15 03:53:20;;;;;;;54.47;27.27;;;;;;;13.25;100.00;100685.06;5019247;28;20040;-64
2022/09/15 03:55:47;;;;;;;52.38;28.80;;;;;;;13.24;100.00;100680.66;5031429;28;20124;-65
2022/09/15 03:58:12;;;;;;;60.35;29.67;;;;;;;13.25;100.00;100679.56;5030881;28;20487;-63
2022/09/15 04:00:38;;;;;;;52.75;28.05;;;;;;;13.23;100.00;100677.06;5028860;28;20128;-64
2022/09/15 04:03:05;;;;;;;53.33;29.10;;;;;;;13.24;100.00;100669.63;5026713;28;20041;-62
2022/09/15 04:05:31;;;;;;;55.67;28.23;;;;;;;13.21;100.00;100661.81;5030747;28;20037;-67
2022/09/15 04:07:56;;;;;;;54.72;29.67;;;;;;;13.21;100.00;100665.44;5029351;28;20029;-64
2022/09/15 04:10:23;;;;;;;54.25;29.40;;;;;;;13.19;100.00;100661.25;5030407;28;20041;-64
2022/09/15 04:12:48;;;;;;;52.50;28.33;;;;;;;13.18;100.00;100662.34;5029867;28;20407;-67
2022/09/15 04:15:14;;;;;;;56.88;29.67;;;;;;;13.15;100.00;100660.91;5030761;28;20030;-63
2022/09/15 04:17:39;;;;;;;55.08;29.98;;;;;;;13.15;100.00;100660.91;5030300;28;20021;-63
2022/09/15 04:20:05;;;;;;;55.43;29.87;;;;;;;13.13;100.00;100662.25;5029056;28;20017;-65
2022/09/15 04:22:31;;;;;;;55.47;29.48;;;;;;;13.13;100.00;100662.25;5029466;28;20277;-63
2022/09/15 04:24:56;;;;;;;64.07;30.30;;;;;;;13.15;100.00;100660.91;5029728;28;20030;-64
2022/09/15 04:27:22;;;;;;;57.22;31.02;;;;;;;13.15;100.00;100652.63;5029574;28;20029;-64
2022/09/15 04:29:50;;;;;;;55.58;28.05;;;;;;;13.17;100.00;100660.63;5030790;28;20041;-64
2022/09/15 04:32:15;;;;;;;62.30;31.45;;;;;;;13.20;100.00;100660.97;5030348;28;20464;-64
2022/09/15 04:34:41;;;;;;;60.65;29.70;;;;;;;13.20;100.00;100662.91;5030088;28;20044;-63
2022/09/15 04:37:06;;;;;;;58.00;29.60;;;;;;;13.22;100.00;100660.75;5028827;28;20029;-63
2022/09/15 04:39:31;;;;;;;57.10;30.95;;;;;;;13.21;100.00;100662.66;5028260;28;20034;-65
2022/09/15 04:41:57;;;;;;;55.00;30.63;;;;;;;13.22;100.00;100660.75;5029507;28;20025;-63
2022/09/15 04:44:22;;;;;;;58.42;29.15;;;;;;;13.21;100.00;100659.06;5030173;28;20032;-63
2022/09/15 04:46:47;;;;;;;56.00;31.10;;;;;;;13.21;100.00;100662.66;5030119;28;20113;-63
2022/09/15 04:49:13;;;;;;;53.95;29.23;;;;;;;13.22;100.00;100660.75;5030168;28;20112;-63
2022/09/15 04:51:38;;;;;;;54.20;28.90;;;;;;;13.22;100.00;100663.50;5029064;28;20383;-63
2022/09/15 04:54:04;;;;;;;55.05;28.65;;;;;;;13.22;100.00;100660.75;5029391;28;20151;-65
2022/09/15 04:56:29;;;;;;;54.17;29.27;;;;;;;13.19;100.00;100667.59;5028186;28;20120;-63
2022/09/15 04:58:58;;;;;;;54.70;28.42;;;;;;;13.19;100.00;100673.09;5028845;28;20083;-63
2022/09/15 05:01:29;;;;;;;56.30;28.63;;;;;;;13.15;100.00;100660.06;5029510;28;20029;-64
2022/09/15 05:03:55;;;;;;;57.25;29.45;;;;;;;13.10;100.00;100660.81;5029176;28;20091;-63
2022/09/15 05:06:23;;;;;;;55.08;29.50;;;;;;;13.06;100.00;100672.59;5028663;28;20029;-65
2022/09/15 05:08:51;;;;;;;55.58;28.95;;;;;;;13.04;100.00;100663.75;5028672;28;20439;-65
2022/09/15 05:11:17;;;;;;;59.83;29.88;;;;;;;13.03;100.00;100657.41;5029415;28;20025;-63
2022/09/15 05:13:43;;;;;;;53.72;28.88;;;;;;;12.99;100.00;100662.59;5028288;28;20037;-65
2022/09/15 05:16:14;;;;;;;56.83;30.35;;;;;;;12.94;100.00;100665.25;5028563;28;20076;-63
2022/09/15 05:18:40;;;;;;;52.20;29.35;;;;;;;12.96;100.00;100660.31;5029000;28;20029;-63
2022/09/15 05:21:07;;;;;;;55.40;30.70;;;;;;;12.95;100.00;100669.69;5028008;28;20029;-65
2022/09/15 05:23:34;;;;;;;53.60;30.25;;;;;;;12.94;100.00;100664.44;5029189;28;20041;-63
2022/09/15 05:26:02;;;;;;;63.35;31.88;;;;;;;12.94;100.00;100664.44;5028074;28;20546;-66
2022/09/15 05:28:27;;;;;;;50.33;30.00;;;;;;;12.95;100.00;100668.84;5029218;28;20029;-65
2022/09/15 05:30:54;;;;;;;52.65;28.98;;;;;;;12.97;100.00;100673.00;5027727;28;20040;-64
2022/09/15 05:33:21;;;;;;;56.03;29.58;;;;;;;12.98;100.00;100671.13;5028830;28;20025;-63
2022/09/15 05:35:53;;;;;;;58.67;30.02;;;;;;;12.97;100.00;100670.25;5029296;28;20033;-64
2022/09/15 05:38:18;;;;;;;55.72;30.65;;;;;;;13.02;100.00;100676.94;5027855;28;20067;-66
2022/09/15 05:40:44;;;;;;;54.70;29.25;;;;;;;13.03;100.00;100681.38;5028923;28;20051;-65
2022/09/15 05:43:10;;;;;;;57.67;29.65;;;;;;;13.07;100.00;100691.66;5028270;28;20057;-63
2022/09/15 05:45:35;;;;;;;55.33;30.35;;;;;;;13.10;100.00;100690.31;5027130;28;20465;-63
2022/09/15 05:48:02;;;;;;;53.92;29.50;;;;;;;13.10;100.00;100684.81;5027643;28;20495;-64
2022/09/15 05:50:27;;;;;;;57.72;30.17;;;;;;;13.15;100.00;100693.16;5027020;28;20476;-66
2022/09/15 05:52:55;;;;;;;59.95;30.88;;;;;;;13.18;100.00;100687.16;5025678;28;20033;-63
2022/09/15 05:55:20;;;;;;;57.80;30.50;;;;;;;13.23;100.00;100687.25;5026935;28;20033;-63
2022/09/15 05:57:45;;;;;;;57.55;32.25;;;;;;;13.27;100.00;100696.69;5026505;28;20415;-63
2022/09/15 06:00:11;;;;;;;57.30;32.00;;;;;;;13.31;100.00;100700.59;5026529;28;20038;-63
2022/09/15 06:02:36;;;;;;;59.55;31.83;;;;;;;13.35;100.00;100696.25;5025958;28;20033;-64
2022/09/15 06:05:02;;;;;;;61.13;32.35;;;;;;;13.39;100.00;100699.34;5026870;28;20060;-63
2022/09/15 06:07:27;;;;;;;61.33;33.03;;;;;;;13.43;100.00;100706.88;5008106;28;20029;-66
2022/09/15 06:09:56;;;;;;;60.75;33.08;;;;;;;13.48;100.00;100706.97;5025400;28;20446;-63
2022/09/15 06:12:22;;;;;;;54.47;30.60;;;;;;;13.53;100.00;100708.09;5026090;28;20411;-63
2022/09/15 06:14:49;;;;;;;54.30;30.48;;;;;;;13.57;100.00;100707.34;5026829;28;20115;-63
2022/09/15 06:17:19;;;;;;;54.13;31.58;;;;;;;13.61;100.00;100707.66;5026313;28;20037;-64
2022/09/15 06:19:44;;;;;;;56.08;29.50;;;;;;;13.63;100.00;100711.00;5026228;28;20034;-65
2022/09/15 06:22:10;;;;;;;52.25;28.30;;;;;;;13.60;100.00;100704.06;5025152;28;20357;-64
2022/09/15 06:24:35;;;;;;;55.80;28.88;;;;;;;13.61;100.00;100704.91;5026536;28;20584;-63
2022/09/15 06:27:01;;;;;;;51.42;27.42;;;;;;;13.62;100.00;100703.81;5025591;28;20059;-64
2022/09/15 06:29:27;;;;;;;49.70;27.48;;;;;;;13.66;100.00;100716.03;5026614;28;20515;-63
2022/09/15 06:31:52;;;;;;;48.13;28.30;;;;;;;13.69;100.00;100715.53;5025922;28;20047;-64
2022/09/15 06:34:18;;;;;;;50.25;29.17;;;;;;;13.79;100.00;100725.84;5025950;28;20599;-65
2022/09/15 06:36:44;;;;;;;45.92;27.02;;;;;;;13.83;100.00;100722.31;5025272;28;20029;-63
2022/09/15 06:39:09;;;;;;;49.78;28.10;;;;;;;13.86;100.00;100730.09;5025983;28;20022;-64
2022/09/15 06:41:34;;;;;;;51.70;28.38;;;;;;;13.93;100.00;100732.66;5025754;28;20068;-64
2022/09/15 06:44:00;;;;;;;48.80;28.35;;;;;;;13.97;100.00;100734.66;5025823;28;20021;-64
2022/09/15 06:46:27;;;;;;;50.65;26.42;;;;;;;14.03;100.00;100747.44;5025575;28;20029;-64
2022/09/15 06:48:53;;;;;;;47.55;26.63;;;;;;;14.05;100.00;100741.69;5026068;28;20025;-64
2022/09/15 06:51:21;;;;;;;45.20;26.75;;;;;;;14.09;100.00;100747.50;5025249;28;20035;-66
2022/09/15 06:53:46;;;;;;;43.95;24.65;;;;;;;14.19;100.00;100744.88;5025604;28;20024;-63
2022/09/15 06:56:17;;;;;;;42.97;23.95;;;;;;;14.24;100.00;100754.09;5025490;28;20041;-65
2022/09/15 06:58:43;;;;;;;40.40;23.83;;;;;;;14.33;100.00;100757.22;5025940;28;20416;-64
2022/09/15 07:01:11;;;;;;;38.92;24.08;;;;;;;14.43;100.00;100743.50;5025996;28;20026;-63
2022/09/15 07:03:37;;;;;;;;;;;;;;;14.61;100.00;100749.84;5026098;28;20056;-65
2022/09/15 07:06:04;;;;;;;36.30;20.60;;;;;;;14.61;100.00;100752.59;5024926;28;19920;-63
2022/09/15 07:08:29;;;;;;;34.92;20.60;;;;;;;14.72;100.00;100749.69;5025377;28;20109;-63
2022/09/15 07:10:55;;;;;;;33.03;20.35;;;;;;;14.80;100.00;100756.69;5024847;28;20492;-63
2022/09/15 07:13:21;;;;;;;32.05;18.05;;;;;;;14.86;100.00;100758.41;5026318;28;20083;-64
2022/09/15 07:15:55;;;;;;;31.50;18.15;;;;;;;14.94;100.00;100760.66;5025833;28;20091;-63
2022/09/15 07:18:21;;;;;;;32.53;17.20;;;;;;;14.94;100.00;100768.13;5026019;28;20026;-64
2022/09/15 07:20:47;;;;;;;27.85;17.48;;;;;;;14.91;100.00;100763.97;5025070;28;20033;-65
2022/09/15 07:23:13;;;;;;;26.77;15.75;;;;;;;14.91;100.00;100754.84;5028187;28;20340;-64
2022/09/15 07:25:44;;;;;;;29.58;16.45;;;;;;;14.93;100.00;100763.72;5029055;28;20460;-63
2022/09/15 07:28:12;;;;;;;30.15;16.05;;;;;;;14.97;100.00;100765.69;5029228;28;20029;-63
2022/09/15 07:30:38;;;;;;;24.77;15.43;;;;;;;15.04;100.00;100759.94;5029808;28;20460;-63
2022/09/15 07:33:07;;;;;;;28.60;15.15;;;;;;;15.11;100.00;100770.81;5029559;28;20223;-64
2022/09/15 07:35:32;;;;;;;27.05;14.30;;;;;;;15.14;100.00;100779.38;5029612;28;20484;-64
2022/09/15 07:37:57;;;;;;;25.45;15.38;;;;;;;15.16;100.00;100784.69;5028898;28;20032;-64
2022/09/15 07:40:23;;;;;;;24.58;14.52;;;;;;;15.18;100.00;100772.25;5029720;28;20021;-64
2022/09/15 07:42:48;;;;;;;26.13;15.82;;;;;;;15.26;100.00;100779.25;5028142;28;20099;-66
2022/09/15 07:45:14;;;;;;;25.73;14.82;;;;;;;15.30;100.00;100777.59;5029871;28;20037;-64
2022/09/15 07:47:39;;;;;;;26.27;14.52;;;;;;;15.37;100.00;100778.22;5029118;28;20499;-65
2022/09/15 07:50:05;;;;;;;29.03;14.43;;;;;;;15.42;100.00;100786.56;5029022;28;20021;-64
2022/09/15 07:52:31;;;;;;;24.42;13.88;;;;;;;15.43;100.00;100784.63;5027928;28;20334;-63
2022/09/15 07:54:56;;;;;;;31.10;15.32;;;;;;;15.45;100.00;100794.31;5029031;28;20031;-64
2022/09/15 07:57:21;;;;;;;26.60;14.30;;;;;;;15.43;100.00;100793.75;5028239;28;20023;-64
2022/09/15 07:59:47;;;;;;;27.63;14.95;;;;;;;15.45;100.00;100790.72;5028454;28;20029;-64
2022/09/15 08:02:17;;;;;;;26.63;15.65;;;;;;;15.48;100.00;100787.44;5010877;28;20804;-63
2022/09/15 08:04:43;;;;;;;32.55;16.13;;;;;;;15.43;100.00;100792.94;5029248;28;20407;-64
2022/09/15 08:07:08;;;;;;;27.20;15.35;;;;;;;15.42;100.00;100800.41;5028091;28;20032;-64
2022/09/15 08:09:36;;;;;;;26.85;15.68;;;;;;;15.44;100.00;100797.38;5028661;28;20046;-64
2022/09/15 08:12:02;;;;;;;29.00;15.27;;;;;;;15.51;100.00;100804.34;5008508;28;20034;-63
2022/09/15 08:14:30;;;;;;;27.30;15.10;;;;;;;15.66;100.00;100802.81;5009175;28;20030;-64
2022/09/15 08:16:56;;;;;;;28.70;14.50;;;;;;;15.82;100.00;100799.91;5011058;28;20123;-63
2022/09/15 08:19:22;;;;;;;29.05;14.40;;;;;;;15.92;97.77;100803.84;5029121;28;20029;-65
2022/09/15 08:21:47;;;;;;;24.13;13.65;;;;;;;16.06;99.09;100793.94;5028052;28;20547;-64
2022/09/15 08:24:12;;;;;;;26.27;12.87;;;;;;;16.02;96.42;100804.75;5028482;28;20040;-64
2022/09/15 08:26:38;;;;;;;25.45;13.32;;;;;;;16.04;96.90;100802.53;5028312;28;20291;-64
2022/09/15 08:29:03;;;;;;;25.45;13.60;;;;;;;16.07;96.96;100807.53;5028216;28;20049;-64
2022/09/15 08:31:28;;;;;;;25.65;12.93;;;;;;;16.09;97.00;100810.88;5029071;28;20022;-64
2022/09/15 08:33:54;;;;;;;22.45;12.50;;;;;;;16.11;95.45;100810.59;5027015;28;20476;-64
2022/09/15 08:36:20;;;;;;;24.42;13.00;;;;;;;16.09;95.16;100810.88;5027814;28;20033;-63
2022/09/15 08:38:45;;;;;;;26.23;12.77;;;;;;;16.10;95.03;100817.25;5028861;28;20038;-63
2022/09/15 08:41:18;;;;;;;25.13;11.68;;;;;;;16.17;96.54;100817.00;5027691;28;20025;-64
2022/09/15 08:43:53;;;;;;;27.30;13.90;;;;;;;16.17;94.88;100823.41;5029072;28;20510;-64
2022/09/15 08:46:26;;;;;;;24.27;13.20;;;;;;;16.23;96.16;100829.78;5028534;28;20482;-64
2022/09/15 08:49:02;;;;;;;25.80;14.38;;;;;;;16.29;95.97;100828.72;5028345;28;20450;-64
2022/09/15 08:51:35;;;;;;;32.13;15.02;;;;;;;16.47;95.86;100827.41;5027227;28;20026;-64
2022/09/15 08:54:15;;;;;;;36.70;15.73;;;;;;;16.64;93.68;100832.75;5027428;28;20079;-65
2022/09/15 08:56:42;;;;;;;20.20;11.65;;;;;;;16.78;90.24;100834.78;5027809;28;20068;-64
2022/09/15 08:59:12;;;;;;;20.30;10.93;;;;;;;17.01;89.75;100841.78;5028017;28;20365;-64
2022/09/15 09:01:49;;;;;;;26.00;11.25;;;;;;;17.45;87.62;100834.91;5027682;28;20087;-65
2022/09/15 09:04:35;;;;;;;26.67;14.10;;;;;;;17.31;87.30;100845.72;5028467;28;20021;-65
2022/09/15 09:07:21;;;;;;;27.63;11.70;;;;;;;16.98;87.88;100856.22;5026872;28;20399;-64
2022/09/15 09:10:05;;;;;;;21.77;8.43;;;;;;;16.70;88.22;100849.13;5027076;28;20056;-64
2022/09/15 09:12:37;;;;;;;18.85;10.73;;;;;;;16.45;89.41;100852.63;5027065;28;20470;-64
2022/09/15 09:15:20;;;;;;;23.35;11.85;;;;;;;16.28;89.24;100854.75;5027792;28;20375;-64
2022/09/15 09:18:05;;;;;;;23.45;11.93;;;;;;;16.17;91.37;100858.56;5027675;28;20049;-64
2022/09/15 09:20:43;;;;;;;22.13;11.32;;;;;;;16.13;91.63;100865.75;5027017;28;20092;-64
2022/09/15 09:23:14;;;;;;;23.58;13.52;;;;;;;16.11;93.46;100859.63;5027206;28;20033;-64
2022/09/15 09:25:41;;;;;;;24.35;12.75;;;;;;;16.08;92.55;100863.78;5027592;28;20029;-64
2022/09/15 09:28:28;;;;;;;23.58;10.57;;;;;;;16.15;92.71;100871.84;5025733;28;20657;-64
2022/09/15 09:30:58;;;;;;;23.25;10.70;;;;;;;16.01;91.86;100861.22;5027163;28;20026;-64
2022/09/15 09:33:35;;;;;;;20.00;9.82;;;;;;;15.95;91.55;100865.06;5027820;28;20029;-64
2022/09/15 09:36:02;;;;;;;25.75;11.00;;;;;;;15.91;93.30;100863.91;5008256;28;20373;-65
2022/09/15 09:38:35;;;;;;;16.17;9.68;;;;;;;15.87;92.23;100873.88;5027566;28;20022;-64
2022/09/15 09:41:03;;;;;;;21.23;10.88;;;;;;;15.84;92.79;100868.88;5026251;28;20041;-64
2022/09/15 09:43:29;;;;;;;22.98;10.32;;;;;;;15.79;92.89;100866.88;5028243;28;20037;-64
2022/09/15 09:45:55;;;;;;;20.08;10.02;;;;;;;15.81;94.61;100869.38;5022851;28;20048;-65
2022/09/15 09:48:24;;;;;;;18.00;8.98;;;;;;;15.80;93.76;100864.94;5027221;28;20037;-64
2022/09/15 09:50:49;;;;;;;19.08;9.70;;;;;;;15.77;95.60;100869.09;5027746;28;20114;-65
2022/09/15 09:53:35;;;;;;;19.50;9.98;;;;;;;15.76;96.41;100874.88;5011071;28;20029;-64
2022/09/15 09:56:15;;;;;;;19.58;10.52;;;;;;;15.68;95.97;100880.94;5026843;28;20033;-64
2022/09/15 09:58:41;;;;;;;19.52;7.43;;;;;;;15.54;94.09;100875.78;5027299;28;20032;-65
2022/09/15 10:01:13;;;;;;;14.60;6.38;;;;;;;15.47;94.17;100869.63;5028201;28;20037;-64
2022/09/15 10:03:40;;;;;;;17.92;5.95;;;;;;;15.56;95.93;100872.75;5027087;28;20119;-64
2022/09/15 10:06:15;;;;;;;16.75;6.78;;;;;;;15.71;97.11;100869.31;5026127;28;20434;-66
2022/09/15 10:08:55;;;;;;;19.05;6.57;;;;;;;15.86;96.97;100874.13;5027347;28;20030;-64
2022/09/15 10:11:21;;;;;;;14.45;5.78;;;;;;;15.97;94.80;100870.38;5027438;28;20097;-65
2022/09/15 10:13:53;;;;;;;15.32;5.43;;;;;;;16.11;93.47;100870.72;5027926;28;20076;-65
2022/09/15 10:16:20;;;;;;;12.30;5.63;;;;;;;16.27;93.10;100864.16;5027053;28;20056;-65
2022/09/15 10:18:48;;;;;;;12.32;5.32;;;;;;;16.53;92.37;100863.22;5028074;28;20029;-64
2022/09/15 10:21:14;;;;;;;16.00;6.13;;;;;;;16.78;89.32;100870.00;5025775;28;20507;-65
2022/09/15 10:23:39;;;;;;;15.20;7.07;;;;;;;16.93;88.82;100866.44;5024971;28;20034;-65
2022/09/15 10:26:16;;;;;;;15.80;6.82;;;;;;;17.06;88.47;100869.53;5024825;28;20029;-64
2022/09/15 10:28:43;;;;;;;17.20;7.07;;;;;;;17.20;89.34;100860.69;5028406;28;20029;-64
2022/09/15 10:31:12;;;;;;;16.70;6.53;;;;;;;17.21;89.23;100876.22;5027243;28;20037;-64
2022/09/15 10:33:43;;;;;;;13.77;5.90;;;;;;;17.04;86.57;100870.94;5028006;28;20034;-65
2022/09/15 10:36:15;;;;;;;16.92;6.28;;;;;;;16.84;90.09;100883.63;5024927;28;20492;-64
2022/09/15 10:39:09;;;;;;;10.73;3.47;;;;;;;16.50;85.09;100888.69;5024375;28;20068;-64
2022/09/15 10:41:45;;;;;;;9.18;2.70;;;;;;;16.13;86.27;100885.16;5018168;28;20051;-64
2022/09/15 10:44:20;;;;;;;8.50;1.98;;;;;;;15.75;83.75;100893.44;5027855;28;20041;-64
2022/09/15 10:47:18;;;;;;;7.93;1.98;;;;;;;15.51;85.99;100892.94;5026159;28;20033;-65
2022/09/15 10:49:58;;;;;;;8.65;1.95;;;;;;;15.28;86.30;100894.06;5026872;28;20033;-65
2022/09/15 10:52:29;;;;;;;6.38;1.90;;;;;;;15.13;87.17;100901.38;5009975;28;20501;-64
2022/09/15 10:55:02;;;;;;;9.18;1.60;;;;;;;14.98;87.11;100888.22;5008089;28;20400;-65
2022/09/15 10:57:47;;;;;;;6.70;1.42;;;;;;;14.97;87.98;100887.38;5023924;28;20048;-65
2022/09/15 11:00:21;;;;;;;6.57;1.63;;;;;;;14.92;88.79;100887.31;5024995;28;20434;-64
2022/09/15 11:03:11;;;;;;;8.68;2.05;;;;;;;14.98;91.70;100888.22;5027903;28;20032;-64
2022/09/15 11:05:52;;;;;;;9.25;2.30;;;;;;;15.13;90.40;100879.25;5024712;28;20493;-65
2022/09/15 11:08:44;;;;;;;10.82;2.22;;;;;;;15.32;90.05;100881.41;5027761;28;20045;-64
2022/09/15 11:11:39;;;;;;;8.25;1.90;;;;;;;15.53;90.00;100884.34;4984906;28;20469;-64
2022/09/15 11:14:27;;;;;;;10.65;2.35;;;;;;;15.80;89.73;100881.56;4984822;28;20034;-64